Time;durP1;ratioP1;P1;durP2;ratioP2;P2;SDS_P1;SDS_P2;PMS_P1;PMS_P2;Temp;Humidity;BMP_temperature;BMP_pressure;BME280_temperature;BME280_humidity;BME280_pressure;Samples;Min_cycle;Max_cycle;Signal;HPM_P1;HPM_P2
2022/07/27 00:01:47;;;;;;;7.63;0.98;;;15.20;99.90;;;;;;4735748;30;20117;-95
2022/07/27 00:04:13;;;;;;;3.58;0.63;;;15.20;99.90;;;;;;4745415;30;20138;-94
2022/07/27 00:06:39;;;;;;;3.92;0.65;;;15.20;99.90;;;;;;4751210;30;20466;-95
2022/07/27 00:09:04;;;;;;;3.85;0.45;;;15.10;99.90;;;;;;4751047;30;20456;-95
2022/07/27 00:11:30;;;;;;;3.75;0.50;;;15.10;99.90;;;;;;4750955;30;20463;-94
2022/07/27 00:13:56;;;;;;;4.68;0.60;;;15.10;99.90;;;;;;4751558;30;20079;-95
2022/07/27 00:16:22;;;;;;;6.25;0.70;;;15.10;99.90;;;;;;4736152;30;20056;-95
2022/07/27 00:18:47;;;;;;;5.78;0.70;;;15.20;99.90;;;;;;4751077;30;20059;-95
2022/07/27 00:21:13;;;;;;;5.07;0.80;;;15.20;99.90;;;;;;4744158;29;20419;-94
2022/07/27 00:23:41;;;;;;;3.30;0.90;;;15.20;99.90;;;;;;4765240;30;20143;-95
2022/07/27 00:26:07;;;;;;;8.57;0.80;;;15.20;99.90;;;;;;4765907;30;20143;-94
2022/07/27 00:28:33;;;;;;;4.03;0.63;;;15.20;99.90;;;;;;4750338;30;20048;-95
2022/07/27 00:30:59;;;;;;;2.58;0.45;;;15.10;99.90;;;;;;4750877;30;20055;-95
2022/07/27 00:33:24;;;;;;;8.20;0.90;;;15.10;99.90;;;;;;4750589;30;20060;-94
2022/07/27 00:35:50;;;;;;;9.07;0.90;;;15.00;99.90;;;;;;4750195;30;20039;-95
2022/07/27 00:38:16;;;;;;;4.68;0.77;;;15.00;99.90;;;;;;4750343;30;20075;-95
2022/07/27 00:40:41;;;;;;;5.13;0.70;;;14.90;99.90;;;;;;4751212;30;20079;-94
2022/07/27 00:43:07;;;;;;;6.15;0.85;;;14.90;99.90;;;;;;4749908;30;20101;-94
2022/07/27 00:45:33;;;;;;;6.43;0.70;;;14.90;99.90;;;;;;4750401;30;20056;-95
2022/07/27 00:47:59;;;;;;;6.68;1.33;;;14.90;99.90;;;;;;4750679;30;20059;-94
2022/07/27 00:50:24;;;;;;;4.20;0.80;;;14.80;99.90;;;;;;4749784;30;20052;-94
2022/07/27 00:52:50;;;;;;;5.88;0.93;;;14.80;99.90;;;;;;4754608;30;20052;-94
2022/07/27 00:55:16;;;;;;;4.38;0.90;;;14.70;99.90;;;;;;4750473;30;20086;-95
2022/07/27 00:57:42;;;;;;;6.30;1.00;;;14.70;99.90;;;;;;4749849;30;20103;-94
2022/07/27 01:00:09;;;;;;;5.22;0.75;;;14.60;99.90;;;;;;4735353;30;20056;-95
2022/07/27 01:02:35;;;;;;;5.72;0.75;;;14.50;99.90;;;;;;4735850;30;20151;-95
2022/07/27 01:05:00;;;;;;;6.45;1.02;;;14.50;99.90;;;;;;4750161;30;20097;-95
2022/07/27 01:07:26;;;;;;;7.97;1.08;;;14.40;99.90;;;;;;4750360;30;20094;-94
2022/07/27 01:09:58;;;;;;;8.65;1.10;;;14.40;99.90;;;;;;4736275;30;20059;-94
2022/07/27 01:12:26;;;;;;;8.55;0.98;;;14.30;99.90;;;;;;4735124;30;20058;-95
2022/07/27 01:14:54;;;;;;;9.38;1.33;;;14.30;99.90;;;;;;4751088;30;20098;-95
2022/07/27 01:17:20;;;;;;;7.63;1.00;;;14.20;99.90;;;;;;4735267;30;20040;-95
2022/07/27 01:19:46;;;;;;;8.20;1.08;;;14.20;99.90;;;;;;4750879;30;20052;-95
2022/07/27 01:22:13;;;;;;;7.95;0.80;;;14.10;99.90;;;;;;4750364;30;20039;-95
2022/07/27 01:24:38;;;;;;;9.52;1.23;;;14.10;99.90;;;;;;4735893;30;20056;-95
2022/07/27 01:27:05;;;;;;;7.20;1.02;;;14.10;99.90;;;;;;4735877;30;20047;-95
2022/07/27 01:29:32;;;;;;;7.03;1.08;;;14.10;99.90;;;;;;4736195;30;20535;-95
2022/07/27 01:31:58;;;;;;;7.45;1.58;;;14.00;99.90;;;;;;4749831;30;20048;-96
2022/07/27 01:34:24;;;;;;;8.45;1.13;;;13.90;99.90;;;;;;4750024;30;20532;-95
2022/07/27 01:36:49;;;;;;;10.52;1.63;;;13.90;99.90;;;;;;4750737;30;20051;-95
2022/07/27 01:39:18;;;;;;;7.25;1.10;;;13.90;99.90;;;;;;4749853;30;20048;-95
2022/07/27 01:41:45;;;;;;;8.30;1.20;;;13.90;99.90;;;;;;4750361;30;20052;-95
2022/07/27 01:44:10;;;;;;;11.40;1.30;;;13.90;99.90;;;;;;4735812;30;20139;-95
2022/07/27 01:46:36;;;;;;;5.85;1.27;;;13.80;99.90;;;;;;4734810;30;20166;-95
2022/07/27 01:49:03;;;;;;;10.30;1.10;;;13.80;99.90;;;;;;4735556;30;20063;-95
2022/07/27 01:51:29;;;;;;;6.97;1.08;;;13.80;99.90;;;;;;4737226;30;20062;-95
2022/07/27 01:53:54;;;;;;;8.88;1.27;;;13.80;99.90;;;;;;4753389;30;20086;-95
2022/07/27 01:56:20;;;;;;;7.05;1.27;;;13.80;99.90;;;;;;4753236;30;20063;-95
2022/07/27 01:58:46;;;;;;;3.97;0.90;;;13.70;99.90;;;;;;4753939;30;20043;-95
2022/07/27 02:01:12;;;;;;;5.88;1.15;;;13.80;99.90;;;;;;4752860;30;20099;-95
2022/07/27 02:03:37;;;;;;;8.50;1.00;;;13.70;99.90;;;;;;4752571;30;20492;-95
2022/07/27 02:06:04;;;;;;;3.42;0.88;;;13.70;99.90;;;;;;4753805;30;20055;-95
2022/07/27 02:08:30;;;;;;;6.18;1.08;;;13.70;99.90;;;;;;4752929;30;20428;-95
2022/07/27 02:13:46;;;;;;;8.25;1.20;;;13.70;99.90;;;;;;4761011;30;20054;-94
2022/07/27 02:16:12;;;;;;;10.18;0.98;;;13.60;99.90;;;;;;4770260;30;20055;-95
2022/07/27 02:18:38;;;;;;;6.47;1.33;;;13.60;99.90;;;;;;4771035;30;20059;-95
2022/07/27 02:21:05;;;;;;;5.70;1.15;;;13.50;99.90;;;;;;4770393;30;20526;-94
2022/07/27 02:23:31;;;;;;;7.53;0.90;;;13.50;99.90;;;;;;4770820;30;20043;-94
2022/07/27 02:25:57;;;;;;;9.68;1.08;;;13.50;99.90;;;;;;4771365;30;20409;-91
2022/07/27 02:28:23;;;;;;;7.20;1.05;;;13.40;99.90;;;;;;4769942;30;20058;-95
2022/07/27 02:30:48;;;;;;;7.65;1.27;;;13.40;99.90;;;;;;4771071;30;20614;-95
2022/07/27 02:33:14;;;;;;;10.43;1.27;;;13.40;99.90;;;;;;4770393;30;20061;-95
2022/07/27 02:35:40;;;;;;;7.50;1.33;;;13.30;99.90;;;;;;4770071;30;20138;-94
2022/07/27 02:38:05;;;;;;;6.95;1.27;;;13.30;99.90;;;;;;4770678;30;20055;-95
2022/07/27 02:40:31;;;;;;;8.52;1.23;;;13.20;99.90;;;;;;4770651;30;20051;-94
2022/07/27 02:42:57;;;;;;;8.40;1.60;;;13.20;99.90;;;;;;4770353;30;20493;-95
2022/07/27 02:45:23;;;;;;;5.90;1.10;;;13.20;99.90;;;;;;4769953;30;20063;-94
2022/07/27 02:47:48;;;;;;;8.88;1.55;;;13.20;99.90;;;;;;4770182;30;20135;-94
2022/07/27 02:50:14;;;;;;;8.18;1.58;;;13.20;99.90;;;;;;4770258;30;20086;-94
2022/07/27 02:52:40;;;;;;;8.43;1.30;;;13.20;99.90;;;;;;4767314;30;20134;-95
2022/07/27 02:55:07;;;;;;;7.57;1.30;;;13.30;99.90;;;;;;4752565;30;20094;-94
2022/07/27 02:57:34;;;;;;;10.77;1.52;;;13.30;99.90;;;;;;4752107;30;20059;-95
2022/07/27 03:00:00;;;;;;;7.78;1.15;;;13.30;99.90;;;;;;4752557;30;20059;-94
2022/07/27 03:02:26;;;;;;;9.15;2.15;;;13.30;99.90;;;;;;4751762;30;20047;-95
2022/07/27 03:04:52;;;;;;;7.50;1.05;;;13.30;99.90;;;;;;4752105;30;20126;-95
2022/07/27 03:07:18;;;;;;;7.05;1.27;;;13.30;99.90;;;;;;4752971;30;20139;-96
2022/07/27 03:09:43;;;;;;;6.25;1.27;;;13.30;99.90;;;;;;4752432;30;20576;-95
2022/07/27 03:12:09;;;;;;;12.38;1.50;;;13.30;99.90;;;;;;4751736;30;20059;-94
2022/07/27 03:14:35;;;;;;;8.82;1.63;;;13.30;99.90;;;;;;4752782;30;20052;-94
2022/07/27 03:17:00;;;;;;;5.90;1.00;;;13.30;99.90;;;;;;4751203;30;20067;-95
2022/07/27 03:19:26;;;;;;;4.38;1.17;;;13.30;99.90;;;;;;4752267;30;20053;-95
2022/07/27 03:21:52;;;;;;;9.93;1.23;;;13.30;99.90;;;;;;4752858;30;20477;-96
2022/07/27 03:24:17;;;;;;;9.07;1.33;;;13.30;99.90;;;;;;4759330;30;20070;-95
2022/07/27 03:26:45;;;;;;;9.00;1.42;;;13.30;99.90;;;;;;4769872;30;20464;-95
2022/07/27 03:29:12;;;;;;;5.88;1.27;;;13.30;99.90;;;;;;4769976;30;20055;-95
2022/07/27 03:31:38;;;;;;;8.82;1.35;;;13.30;99.90;;;;;;4768906;30;20621;-95
2022/07/27 03:34:03;;;;;;;6.18;1.13;;;13.30;99.90;;;;;;4769780;30;20051;-95
2022/07/27 03:36:29;;;;;;;8.40;1.38;;;13.30;99.90;;;;;;4770335;30;20062;-96
2022/07/27 03:38:55;;;;;;;6.15;1.17;;;13.30;99.90;;;;;;4769863;30;20460;-96
2022/07/27 03:41:20;;;;;;;8.02;1.52;;;13.30;99.90;;;;;;4769075;30;20051;-94
2022/07/27 03:43:46;;;;;;;9.88;1.30;;;13.30;99.90;;;;;;4769803;30;20055;-95
2022/07/27 03:46:13;;;;;;;7.97;1.05;;;13.20;99.90;;;;;;4768820;30;20150;-95
2022/07/27 03:48:39;;;;;;;6.13;1.20;;;13.30;99.90;;;;;;4769513;30;20047;-95
2022/07/27 03:51:05;;;;;;;11.13;1.52;;;13.30;99.90;;;;;;4769861;30;20058;-95
2022/07/27 03:53:31;;;;;;;10.43;1.17;;;13.30;99.90;;;;;;4768849;30;20535;-95
2022/07/27 03:55:57;;;;;;;9.70;0.90;;;13.30;99.90;;;;;;4769947;30;20054;-94
2022/07/27 03:58:23;;;;;;;6.43;1.50;;;13.30;99.90;;;;;;4754669;30;20047;-94
2022/07/27 04:00:49;;;;;;;13.82;1.42;;;13.30;99.90;;;;;;4768542;30;20495;-94
2022/07/27 04:03:16;;;;;;;8.73;1.08;;;13.30;99.90;;;;;;4768810;30;20044;-94
2022/07/27 04:05:42;;;;;;;6.88;1.48;;;13.40;99.90;;;;;;4769407;30;20218;-95
2022/07/27 04:08:08;;;;;;;4.55;1.00;;;13.40;99.90;;;;;;4768908;30;20140;-95
2022/07/27 04:10:33;;;;;;;7.97;1.30;;;13.40;99.90;;;;;;4768865;30;20047;-95
2022/07/27 04:12:59;;;;;;;11.80;1.40;;;13.40;99.90;;;;;;4769256;30;20047;-95
2022/07/27 04:15:25;;;;;;;6.50;1.05;;;13.40;99.90;;;;;;4767785;30;20542;-95
2022/07/27 04:17:51;;;;;;;9.75;1.15;;;13.50;99.90;;;;;;4768852;30;20047;-95
2022/07/27 04:20:17;;;;;;;6.35;1.10;;;13.50;99.90;;;;;;4763098;30;20047;-95
2022/07/27 04:22:43;;;;;;;12.52;1.58;;;13.50;99.90;;;;;;4753840;30;20125;-95
2022/07/27 04:25:09;;;;;;;8.88;1.30;;;13.50;99.90;;;;;;4754228;30;20485;-95
2022/07/27 04:27:35;;;;;;;11.65;0.93;;;13.40;99.90;;;;;;4752441;30;20165;-95
2022/07/27 04:30:01;;;;;;;7.43;1.10;;;13.40;99.90;;;;;;4754038;30;20473;-95
2022/07/27 04:32:26;;;;;;;10.50;1.38;;;13.40;99.90;;;;;;4754666;30;20051;-95
2022/07/27 04:34:52;;;;;;;6.20;1.05;;;13.40;99.90;;;;;;4754720;30;20104;-93
2022/07/27 04:37:18;;;;;;;4.40;1.25;;;13.50;99.90;;;;;;4753952;30;20063;-94
2022/07/27 04:39:44;;;;;;;8.25;1.05;;;13.50;99.90;;;;;;4754286;30;20065;-94
2022/07/27 04:42:09;;;;;;;7.13;1.20;;;13.60;99.90;;;;;;4753073;30;20562;-94
2022/07/27 04:44:35;;;;;;;9.63;1.75;;;13.60;99.90;;;;;;4753872;30;20047;-94
2022/07/27 04:47:01;;;;;;;9.38;1.33;;;13.60;99.90;;;;;;4753184;30;20181;-95
2022/07/27 04:49:26;;;;;;;14.75;1.58;;;13.60;99.90;;;;;;4753267;30;20094;-93
2022/07/27 04:51:52;;;;;;;10.05;1.33;;;13.70;99.90;;;;;;4754120;30;20112;-92
2022/07/27 04:54:18;;;;;;;13.00;1.52;;;13.70;99.90;;;;;;4753445;30;20047;-92
2022/07/27 04:56:43;;;;;;;8.20;1.35;;;13.80;99.90;;;;;;4752882;30;20065;-92
2022/07/27 04:59:10;;;;;;;6.75;1.35;;;13.80;99.90;;;;;;4783174;30;20070;-92
2022/07/27 05:01:36;;;;;;;10.88;1.67;;;13.90;99.90;;;;;;4768088;30;20090;-93
2022/07/27 05:04:03;;;;;;;11.38;1.30;;;14.00;99.90;;;;;;4767738;30;20097;-93
2022/07/27 05:06:31;;;;;;;8.15;1.15;;;14.10;99.90;;;;;;4768155;30;20158;-93
2022/07/27 05:08:58;;;;;;;16.35;2.20;;;14.20;99.90;;;;;;4768625;30;20051;-93
2022/07/27 05:11:23;;;;;;;11.77;1.95;;;14.30;99.90;;;;;;4767549;30;20421;-92
2022/07/27 05:13:49;;;;;;;9.70;1.40;;;14.40;99.90;;;;;;4768278;30;20074;-92
2022/07/27 05:16:15;;;;;;;9.48;1.73;;;14.50;99.90;;;;;;4767641;30;20115;-91
2022/07/27 05:18:40;;;;;;;9.68;1.55;;;14.60;99.90;;;;;;4767192;30;20043;-92
2022/07/27 05:21:07;;;;;;;10.38;1.50;;;14.60;99.90;;;;;;4768331;30;20048;-92
2022/07/27 05:23:33;;;;;;;9.30;2.03;;;14.80;99.90;;;;;;4767833;30;20055;-91
2022/07/27 05:25:59;;;;;;;9.00;1.73;;;14.80;99.90;;;;;;4772921;30;20117;-92
2022/07/27 05:28:25;;;;;;;17.95;1.50;;;14.80;99.90;;;;;;4773445;30;20047;-93
2022/07/27 05:30:51;;;;;;;12.30;1.77;;;14.80;99.90;;;;;;4773474;30;20130;-93
2022/07/27 05:33:16;;;;;;;6.10;1.75;;;14.80;99.90;;;;;;4773988;30;20066;-92
2022/07/27 05:35:42;;;;;;;10.48;1.38;;;14.70;99.90;;;;;;4773838;30;20085;-92
2022/07/27 05:38:08;;;;;;;9.30;1.70;;;14.70;99.90;;;;;;4773758;30;20134;-93
2022/07/27 05:40:34;;;;;;;10.73;1.63;;;14.70;99.90;;;;;;4774103;30;20138;-92
2022/07/27 05:42:59;;;;;;;10.93;1.88;;;14.70;99.90;;;;;;4774025;30;20422;-93
2022/07/27 05:45:25;;;;;;;9.95;1.88;;;14.70;99.90;;;;;;4773142;30;20063;-93
2022/07/27 05:47:53;;;;;;;10.50;1.60;;;14.80;99.90;;;;;;4773712;30;20099;-92
2022/07/27 05:50:19;;;;;;;6.63;1.30;;;14.80;99.90;;;;;;4774601;30;20051;-93
2022/07/27 05:52:45;;;;;;;9.95;2.25;;;14.80;99.90;;;;;;4770409;30;20059;-92
2022/07/27 05:55:11;;;;;;;10.05;1.75;;;14.80;99.90;;;;;;4741585;30;20045;-93
2022/07/27 05:57:39;;;;;;;8.95;1.33;;;14.80;99.90;;;;;;4741265;30;20060;-93
2022/07/27 06:00:06;;;;;;;10.63;1.40;;;14.80;99.90;;;;;;4740548;30;20056;-92
2022/07/27 06:02:32;;;;;;;8.57;1.40;;;14.90;99.90;;;;;;4755859;30;20048;-93
2022/07/27 06:04:58;;;;;;;9.40;1.88;;;14.90;99.90;;;;;;4741401;30;20055;-93
2022/07/27 06:10:10;;;;;;;11.95;1.58;;;15.10;99.90;;;;;;4756072;30;20052;-92
2022/07/27 06:12:39;;;;;;;6.28;1.55;;;15.20;99.90;;;;;;4741521;30;20050;-91
2022/07/27 06:15:07;;;;;;;10.25;1.55;;;15.20;99.90;;;;;;4740679;30;20450;-92
2022/07/27 06:17:32;;;;;;;10.07;1.70;;;15.30;99.90;;;;;;4740859;30;20052;-93
2022/07/27 06:19:58;;;;;;;12.52;1.67;;;15.30;99.90;;;;;;4740759;30;20515;-92
2022/07/27 06:22:24;;;;;;;6.57;1.58;;;15.30;99.90;;;;;;4740853;30;20048;-93
2022/07/27 06:24:50;;;;;;;11.25;1.83;;;15.30;99.90;;;;;;4741763;30;20061;-93
2022/07/27 06:27:15;;;;;;;7.38;1.58;;;15.30;99.90;;;;;;4740934;30;20583;-93
2022/07/27 06:29:41;;;;;;;10.73;2.60;;;15.50;99.90;;;;;;4740816;30;20142;-88
2022/07/27 06:32:07;;;;;;;16.25;2.15;;;15.60;99.90;;;;;;4738408;30;20039;-83
2022/07/27 06:34:32;;;;;;;16.58;2.53;;;15.70;99.90;;;;;;4753263;30;20416;-84
2022/07/27 06:36:59;;;;;;;11.07;2.00;;;15.80;99.90;;;;;;4736685;30;20062;-85
2022/07/27 06:39:25;;;;;;;11.88;1.70;;;16.00;99.90;;;;;;4738514;30;20094;-84
2022/07/27 06:41:51;;;;;;;7.45;1.58;;;16.10;99.90;;;;;;4766125;30;20138;-90
2022/07/27 06:44:17;;;;;;;12.23;1.85;;;16.20;99.90;;;;;;4768993;30;20134;-84
2022/07/27 06:46:42;;;;;;;12.98;1.60;;;16.40;99.90;;;;;;4767623;30;20050;-84
2022/07/27 06:49:08;;;;;;;9.55;1.77;;;16.50;99.90;;;;;;4767737;30;20051;-84
2022/07/27 06:51:34;;;;;;;10.25;1.20;;;16.60;99.90;;;;;;4768423;30;20162;-85
2022/07/27 06:54:00;;;;;;;11.85;1.55;;;16.70;99.90;;;;;;4768469;30;20134;-84
2022/07/27 06:56:25;;;;;;;12.77;1.42;;;16.70;99.90;;;;;;4767333;30;20055;-85
2022/07/27 06:58:51;;;;;;;13.18;1.20;;;16.80;99.90;;;;;;4768658;30;20158;-85
2022/07/27 07:01:17;;;;;;;10.45;1.30;;;16.90;99.90;;;;;;4768029;30;20047;-86
2022/07/27 07:03:43;;;;;;;10.80;1.15;;;17.00;99.90;;;;;;4767582;30;20516;-85
2022/07/27 07:06:09;;;;;;;6.07;1.17;;;17.10;99.90;;;;;;4753349;30;20049;-85
2022/07/27 07:08:35;;;;;;;9.60;1.08;;;17.20;99.90;;;;;;4768700;30;20116;-84
2022/07/27 07:11:00;;;;;;;8.35;1.35;;;17.30;99.90;;;;;;4769209;30;20476;-86
2022/07/27 07:13:26;;;;;;;8.02;0.90;;;17.50;99.90;;;;;;4768647;30;20488;-85
2022/07/27 07:15:52;;;;;;;9.45;1.23;;;17.60;99.90;;;;;;4768277;30;20109;-84
2022/07/27 07:18:18;;;;;;;8.52;1.50;;;17.80;99.90;;;;;;4766678;30;20130;-83
2022/07/27 07:20:43;;;;;;;12.07;1.05;;;17.90;99.90;;;;;;4768476;30;20111;-85
2022/07/27 07:23:10;;;;;;;6.75;1.00;;;18.00;99.90;;;;;;4767700;30;20424;-86
2022/07/27 07:25:37;;;;;;;7.25;1.27;;;17.90;99.90;;;;;;4768703;30;20058;-95
2022/07/27 07:28:04;;;;;;;8.57;1.30;;;17.80;99.90;;;;;;4788272;30;20046;-95
2022/07/27 07:30:30;;;;;;;9.18;1.20;;;17.60;99.90;;;;;;4768999;30;20610;-96
2022/07/27 07:32:56;;;;;;;11.50;1.02;;;17.50;99.90;;;;;;4769864;30;20067;-95
2022/07/27 07:35:22;;;;;;;5.55;1.10;;;17.20;99.90;;;;;;4769491;30;20506;-96
2022/07/27 07:37:48;;;;;;;6.70;1.33;;;17.00;99.90;;;;;;4769790;30;20058;-95
2022/07/27 07:40:14;;;;;;;7.28;1.17;;;16.80;99.90;;;;;;4769595;30;20417;-95
2022/07/27 07:43:00;;;;;;;7.55;0.90;;;16.70;99.90;;;;;;4769621;30;20055;-95
2022/07/27 07:45:27;;;;;;;11.50;1.20;;;16.50;99.90;;;;;;4769077;30;20062;-95
2022/07/27 07:47:54;;;;;;;7.47;1.00;;;16.40;99.90;;;;;;4769244;30;20493;-95
2022/07/27 07:50:21;;;;;;;6.45;1.20;;;16.40;99.90;;;;;;4768948;30;20066;-94
2022/07/27 07:52:48;;;;;;;5.55;0.77;;;16.30;99.90;;;;;;4766368;30;20062;-94
2022/07/27 07:55:14;;;;;;;6.65;1.05;;;16.30;99.90;;;;;;4736779;30;20494;-95
2022/07/27 07:57:40;;;;;;;5.38;0.90;;;16.20;99.90;;;;;;4736976;30;20063;-94
2022/07/27 08:00:08;;;;;;;5.78;0.93;;;16.20;99.90;;;;;;4735966;30;20054;-94
2022/07/27 08:02:43;;;;;;;7.72;1.10;;;16.20;99.90;;;;;;4736518;30;20101;-94
2022/07/27 08:05:09;;;;;;;9.65;1.20;;;16.20;99.90;;;;;;4736637;30;20153;-94
2022/07/27 08:07:34;;;;;;;11.75;1.33;;;16.30;99.90;;;;;;4736628;30;20051;-95
2022/07/27 08:10:00;;;;;;;12.45;1.30;;;16.40;99.90;;;;;;4736861;30;20054;-95
2022/07/27 08:12:26;;;;;;;10.02;1.30;;;16.50;99.90;;;;;;4735898;30;20230;-94
2022/07/27 08:14:52;;;;;;;12.52;1.30;;;16.70;99.90;;;;;;4737244;30;20062;-94
2022/07/27 08:17:17;;;;;;;7.10;1.15;;;16.80;99.90;;;;;;4735571;30;20390;-96
2022/07/27 08:19:43;;;;;;;10.57;1.20;;;16.90;99.90;;;;;;4736441;30;20587;-95
2022/07/27 08:22:09;;;;;;;9.90;1.35;;;16.90;99.90;;;;;;4736401;30;20416;-95
2022/07/27 08:24:34;;;;;;;5.03;0.85;;;16.90;99.90;;;;;;4736637;30;20048;-95
2022/07/27 08:27:00;;;;;;;8.82;1.45;;;16.90;99.90;;;;;;4736155;30;20517;-95
2022/07/27 08:29:26;;;;;;;9.73;1.38;;;16.90;99.90;;;;;;4736106;30;20052;-96
2022/07/27 08:31:52;;;;;;;6.43;1.30;;;16.80;99.90;;;;;;4735723;30;20054;-95
2022/07/27 08:34:17;;;;;;;10.85;1.27;;;16.80;99.90;;;;;;4735937;30;20044;-91
2022/07/27 08:36:43;;;;;;;7.47;1.33;;;16.80;99.90;;;;;;4736083;30;20059;-89
2022/07/27 08:39:09;;;;;;;9.27;1.05;;;16.90;99.90;;;;;;4734482;30;20541;-86
2022/07/27 08:41:41;;;;;;;9.48;1.42;;;16.90;99.90;;;;;;4748814;30;20118;-86
2022/07/27 08:44:11;;;;;;;10.17;1.20;;;17.00;99.90;;;;;;4767760;30;20059;-84
2022/07/27 08:46:39;;;;;;;9.07;1.45;;;17.10;99.90;;;;;;4765854;30;20047;-85
2022/07/27 08:49:07;;;;;;;11.73;1.42;;;17.20;99.90;;;;;;4766225;30;20471;-85
2022/07/27 08:51:33;;;;;;;9.90;1.10;;;17.40;99.90;;;;;;4766335;30;20138;-85
2022/07/27 08:54:00;;;;;;;12.75;1.10;;;17.50;99.90;;;;;;4766870;30;20066;-85
2022/07/27 08:56:26;;;;;;;6.72;1.02;;;17.60;99.90;;;;;;4764885;30;20051;-85
2022/07/27 08:58:52;;;;;;;11.25;1.15;;;17.80;99.90;;;;;;4766489;30;20511;-85
2022/07/27 09:01:18;;;;;;;12.68;1.80;;;17.90;99.90;;;;;;4760641;30;20069;-85
2022/07/27 09:03:44;;;;;;;8.13;1.48;;;18.10;99.90;;;;;;4747303;30;20668;-84
2022/07/27 09:06:10;;;;;;;4.25;0.70;;;18.20;99.90;;;;;;4750851;30;20086;-85
2022/07/27 09:08:40;;;;;;;7.43;1.50;;;18.30;99.90;;;;;;4747941;30;20515;-85
2022/07/27 09:11:15;;;;;;;7.97;0.90;;;18.40;99.90;;;;;;4748507;30;20051;-86
2022/07/27 09:13:41;;;;;;;4.60;0.70;;;18.50;99.90;;;;;;4757971;30;20505;-86
2022/07/27 09:16:09;;;;;;;9.38;0.70;;;18.50;99.90;;;;;;4765776;30;20138;-84
2022/07/27 09:18:36;;;;;;;5.00;0.77;;;18.60;99.90;;;;;;4766113;30;20061;-85
2022/07/27 09:21:20;;;;;;;2.80;0.50;;;18.70;99.90;;;;;;4767178;30;20091;-85
2022/07/27 09:23:50;;;;;;;5.38;0.80;;;18.70;99.90;;;;;;4766344;30;20147;-86
2022/07/27 09:26:20;;;;;;;3.28;0.40;;;18.70;99.90;;;;;;4766563;30;20058;-85
2022/07/27 09:28:46;;;;;;;7.75;0.68;;;18.80;99.90;;;;;;4767165;30;20149;-86
2022/07/27 09:31:14;;;;;;;7.35;1.27;;;18.90;99.90;;;;;;4765764;30;20066;-85
2022/07/27 09:33:45;;;;;;;8.50;0.93;;;19.00;99.90;;;;;;4766139;30;20059;-85
2022/07/27 09:36:11;;;;;;;3.97;0.73;;;19.10;99.90;;;;;;4766287;30;20081;-85
2022/07/27 09:38:48;;;;;;;6.70;0.63;;;19.10;99.90;;;;;;4765727;30;20421;-84
2022/07/27 09:41:14;;;;;;;3.50;0.50;;;19.20;99.90;;;;;;4766424;30;20159;-84
2022/07/27 09:43:51;;;;;;;4.95;1.00;;;19.20;99.90;;;;;;4765856;30;20526;-85
2022/07/27 09:46:29;;;;;;;5.65;0.60;;;19.30;99.90;;;;;;4765787;30;20043;-84
2022/07/27 09:48:55;;;;;;;3.75;0.40;;;19.40;99.90;;;;;;4766247;30;20098;-84
2022/07/27 09:51:24;;;;;;;5.18;0.80;;;19.50;99.90;;;;;;4764789;30;20501;-84
2022/07/27 09:53:51;;;;;;;3.05;0.50;;;19.60;99.90;;;;;;4766577;30;20129;-85
2022/07/27 09:56:23;;;;;;;6.13;0.98;;;19.70;99.90;;;;;;4765257;30;20056;-85
2022/07/27 09:58:52;;;;;;;3.57;0.57;;;19.80;99.90;;;;;;4765729;30;20063;-83
2022/07/27 10:01:21;;;;;;;5.53;0.63;;;19.90;99.90;;;;;;4765015;30;20496;-84
2022/07/27 10:03:48;;;;;;;5.68;0.82;;;19.90;99.90;;;;;;4765819;30;20126;-84
2022/07/27 10:06:15;;;;;;;4.85;0.60;;;19.90;99.90;;;;;;4765091;30;20074;-84
2022/07/27 10:08:44;;;;;;;4.63;0.75;;;19.80;99.90;;;;;;4766149;30;20074;-84
2022/07/27 10:11:11;;;;;;;7.28;0.80;;;19.80;99.90;;;;;;4765956;30;20055;-84
2022/07/27 10:13:38;;;;;;;5.53;0.70;;;19.70;99.90;;;;;;4754398;30;20059;-84
2022/07/27 10:16:05;;;;;;;5.38;0.60;;;19.60;99.90;;;;;;4768886;30;20090;-84
2022/07/27 10:18:49;;;;;;;4.60;0.80;;;19.60;99.90;;;;;;4769143;30;20066;-85
2022/07/27 10:21:15;;;;;;;5.30;0.68;;;19.70;99.90;;;;;;4768733;30;20051;-85
2022/07/27 10:23:53;;;;;;;3.50;0.85;;;19.70;99.90;;;;;;4769546;30;20089;-84
2022/07/27 10:26:22;;;;;;;2.35;0.43;;;19.70;99.90;;;;;;4768896;30;20072;-84
2022/07/27 10:28:51;;;;;;;2.65;0.45;;;19.50;99.90;;;;;;4769384;30;20104;-84
2022/07/27 10:31:19;;;;;;;4.97;0.57;;;19.50;99.90;;;;;;4768906;30;20047;-84
2022/07/27 10:33:47;;;;;;;5.35;0.50;;;19.60;99.90;;;;;;4767906;30;20472;-84
2022/07/27 10:36:15;;;;;;;5.25;0.52;;;19.70;99.90;;;;;;4769074;30;20058;-84
2022/07/27 10:38:47;;;;;;;6.53;0.55;;;19.80;99.90;;;;;;4768779;30;20055;-84
2022/07/27 10:41:24;;;;;;;3.20;0.52;;;19.80;99.90;;;;;;4768004;30;20086;-84
2022/07/27 10:44:17;;;;;;;5.35;0.80;;;19.60;99.90;;;;;;4769065;30;20051;-83
2022/07/27 10:46:49;;;;;;;6.05;0.85;;;19.30;99.90;;;;;;4767434;30;20051;-83
2022/07/27 10:49:18;;;;;;;5.53;0.80;;;19.50;99.90;;;;;;4768099;30;20453;-83
2022/07/27 10:51:44;;;;;;;3.50;0.82;;;19.90;99.90;;;;;;4768073;30;20109;-84
2022/07/27 10:54:26;;;;;;;5.05;0.73;;;20.30;99.90;;;;;;4768068;30;20089;-83
2022/07/27 10:56:54;;;;;;;2.03;0.30;;;20.50;99.90;;;;;;4768440;30;20055;-84
2022/07/27 10:59:38;;;;;;;2.13;0.30;;;20.40;99.60;;;;;;4767767;30;20062;-84
2022/07/27 11:02:06;;;;;;;2.90;0.50;;;20.50;99.70;;;;;;4766505;30;20097;-83
2022/07/27 11:04:32;;;;;;;7.30;0.50;;;20.60;99.30;;;;;;4768550;30;20116;-84
2022/07/27 11:07:00;;;;;;;6.75;0.65;;;20.80;98.50;;;;;;4768327;30;20086;-83
2022/07/27 11:09:36;;;;;;;2.75;0.40;;;20.90;97.80;;;;;;4767428;30;20051;-83
2022/07/27 11:12:05;;;;;;;4.50;0.52;;;21.20;96.40;;;;;;4768012;30;20083;-82
2022/07/27 11:14:49;;;;;;;4.97;0.32;;;21.20;96.20;;;;;;4752924;30;20393;-83
2022/07/27 11:17:19;;;;;;;5.18;0.60;;;21.00;96.30;;;;;;4763773;30;20067;-84
2022/07/27 11:19:50;;;;;;;3.53;0.73;;;20.60;95.40;;;;;;4765439;30;20519;-84
2022/07/27 11:22:16;;;;;;;3.08;0.47;;;20.40;95.90;;;;;;4749224;30;20043;-84
2022/07/27 11:24:41;;;;;;;2.70;0.60;;;20.20;97.40;;;;;;4735595;30;20085;-84
2022/07/27 11:27:10;;;;;;;4.95;0.70;;;20.00;98.20;;;;;;4750179;30;20403;-83
2022/07/27 11:29:35;;;;;;;4.63;0.60;;;19.90;99.30;;;;;;4735239;30;20828;-85
2022/07/27 11:32:02;;;;;;;8.57;0.63;;;20.00;99.90;;;;;;4749995;30;20560;-84
2022/07/27 11:34:31;;;;;;;3.65;0.57;;;20.00;99.90;;;;;;4755447;30;20663;-83
2022/07/27 11:37:01;;;;;;;6.97;0.65;;;20.00;99.90;;;;;;4767945;30;20389;-84
2022/07/27 11:39:29;;;;;;;4.63;0.70;;;19.90;99.90;;;;;;4767025;30;20500;-85
2022/07/27 11:41:57;;;;;;;4.47;0.60;;;19.80;99.90;;;;;;4768376;30;20471;-84
2022/07/27 11:44:23;;;;;;;3.13;0.40;;;19.60;99.90;;;;;;4766892;30;20151;-85
2022/07/27 11:46:51;;;;;;;2.20;0.40;;;19.30;99.70;;;;;;4767585;30;20473;-85
2022/07/27 11:49:25;;;;;;;2.97;0.52;;;19.20;99.90;;;;;;4767906;30;20138;-85
2022/07/27 11:51:52;;;;;;;3.05;0.40;;;19.40;99.90;;;;;;4767537;30;20047;-85
2022/07/27 11:54:22;;;;;;;3.35;0.75;;;19.90;99.90;;;;;;4767599;30;20049;-86
2022/07/27 11:56:52;;;;;;;4.75;1.00;;;20.10;99.90;;;;;;4767657;30;20074;-84
2022/07/27 11:59:21;;;;;;;3.83;0.70;;;20.10;99.90;;;;;;4766834;30;20141;-85
2022/07/27 12:01:50;;;;;;;5.47;0.60;;;20.10;99.90;;;;;;4768667;30;20134;-87
2022/07/27 12:04:20;;;;;;;6.63;0.80;;;20.10;99.90;;;;;;4764077;30;20075;-85
2022/07/27 12:06:53;;;;;;;4.80;0.55;;;20.00;99.90;;;;;;4734986;30;20062;-86
2022/07/27 12:09:19;;;;;;;9.05;1.08;;;20.10;99.90;;;;;;4735374;30;20048;-87
2022/07/27 12:11:49;;;;;;;9.43;1.20;;;20.30;99.90;;;;;;4734568;30;20105;-84
2022/07/27 12:14:17;;;;;;;5.57;0.73;;;20.40;99.90;;;;;;4764669;30;20058;-84
2022/07/27 12:16:43;;;;;;;8.48;0.88;;;20.40;99.90;;;;;;4763514;30;20059;-92
2022/07/27 12:19:09;;;;;;;4.88;0.70;;;20.20;99.90;;;;;;4740050;30;20048;-94
2022/07/27 12:21:35;;;;;;;9.75;0.70;;;20.20;99.90;;;;;;4737193;30;20802;-94
2022/07/27 12:24:00;;;;;;;3.35;0.80;;;20.00;99.90;;;;;;4736476;30;20481;-95
2022/07/27 12:26:26;;;;;;;6.22;0.70;;;19.90;99.90;;;;;;4735567;30;20044;-94
2022/07/27 12:29:08;;;;;;;3.58;0.63;;;19.90;99.90;;;;;;4736519;30;20063;-94
2022/07/27 12:31:36;;;;;;;8.13;0.90;;;20.10;99.90;;;;;;4736158;30;20119;-94
2022/07/27 12:34:05;;;;;;;9.00;0.90;;;20.40;99.90;;;;;;4735496;30;20127;-95
2022/07/27 12:36:31;;;;;;;6.30;0.60;;;20.40;99.90;;;;;;4736484;30;20109;-93
2022/07/27 12:38:57;;;;;;;5.10;0.77;;;20.40;99.90;;;;;;4736716;30;20048;-94
2022/07/27 12:41:29;;;;;;;5.57;1.02;;;20.00;99.90;;;;;;4735489;30;20052;-94
2022/07/27 12:44:07;;;;;;;5.75;0.70;;;19.80;99.90;;;;;;4751311;30;20048;-94
2022/07/27 12:46:50;;;;;;;3.55;0.70;;;19.50;99.90;;;;;;4750247;30;20062;-94
2022/07/27 12:49:15;;;;;;;6.88;1.08;;;19.40;99.90;;;;;;4750784;30;20095;-95
2022/07/27 12:51:41;;;;;;;4.93;0.73;;;19.20;99.90;;;;;;4751376;30;20083;-92